createdAt,value
2022-08-30T00:01:02.572Z,18.41
2022-08-30T00:03:38.129Z,18.22
2022-08-30T00:06:06.611Z,18.20
2022-08-30T00:08:34.818Z,18.11
2022-08-30T00:11:04.809Z,18.17
2022-08-30T00:13:31.427Z,18.15
2022-08-30T00:15:58.327Z,18.06
2022-08-30T00:18:24.881Z,17.76
2022-08-30T00:20:51.957Z,17.89
2022-08-30T00:23:19.163Z,17.81
2022-08-30T00:25:45.856Z,17.77
2022-08-30T00:28:14.031Z,17.72
2022-08-30T00:30:41.637Z,17.67
2022-08-30T00:33:08.190Z,17.67
2022-08-30T00:35:34.895Z,17.61
2022-08-30T00:38:02.031Z,17.44
2022-08-30T00:40:30.226Z,17.43
2022-08-30T00:42:59.747Z,17.45
2022-08-30T00:45:37.592Z,17.41
2022-08-30T00:48:05.712Z,17.31
2022-08-30T00:50:43.096Z,17.29
2022-08-30T00:53:15.090Z,17.31
2022-08-30T00:55:44.253Z,17.28
2022-08-30T00:58:16.688Z,17.29
2022-08-30T01:00:44.006Z,17.32
2022-08-30T01:03:10.437Z,17.39
2022-08-30T01:05:38.589Z,17.43
2022-08-30T01:08:06.433Z,17.52
2022-08-30T01:10:35.701Z,17.48
2022-08-30T01:13:02.873Z,17.49
2022-08-30T01:15:31.165Z,17.45
2022-08-30T01:17:58.315Z,17.41
2022-08-30T01:20:33.837Z,17.39
2022-08-30T01:23:10.121Z,17.31
2022-08-30T01:25:37.883Z,17.27
2022-08-30T01:28:10.903Z,17.22
2022-08-30T01:30:39.071Z,17.16
2022-08-30T01:33:07.099Z,17.16
2022-08-30T01:35:44.405Z,17.13
2022-08-30T01:38:12.791Z,17.02
2022-08-30T01:40:39.198Z,17.16
2022-08-30T01:43:06.897Z,17.18
2022-08-30T01:45:33.834Z,17.19
2022-08-30T01:48:00.258Z,17.22
2022-08-30T01:50:30.405Z,17.26
2022-08-30T01:52:56.957Z,17.26
2022-08-30T01:55:23.493Z,17.26
2022-08-30T01:57:50.160Z,17.27
2022-08-30T02:00:17.921Z,17.27
2022-08-30T02:02:44.723Z,17.19
2022-08-30T02:05:11.287Z,17.31
2022-08-30T02:07:37.733Z,17.30
2022-08-30T02:10:04.737Z,17.29
2022-08-30T02:12:31.154Z,17.29
2022-08-30T02:14:57.993Z,17.26
2022-08-30T02:17:24.593Z,17.25
2022-08-30T02:19:50.994Z,17.26
2022-08-30T02:22:17.530Z,17.31
2022-08-30T02:24:44.201Z,17.33
2022-08-30T02:27:10.563Z,17.33
2022-08-30T02:29:36.955Z,17.31
2022-08-30T02:32:04.118Z,17.28
2022-08-30T02:34:30.586Z,17.26
2022-08-30T02:36:57.024Z,17.29
2022-08-30T02:39:23.433Z,17.32
2022-08-30T02:41:49.913Z,17.34
2022-08-30T02:44:16.901Z,17.34
2022-08-30T02:46:43.598Z,17.32
2022-08-30T02:49:32.718Z,17.29
2022-08-30T02:51:56.889Z,17.23
2022-08-30T02:54:23.265Z,17.14
2022-08-30T02:56:50.437Z,17.02
2022-08-30T02:59:17.949Z,17.08
2022-08-30T03:01:44.556Z,17.13
2022-08-30T03:04:11.148Z,17.17
2022-08-30T03:06:37.585Z,17.04
2022-08-30T03:09:04.077Z,17.16
2022-08-30T03:11:30.668Z,17.03
2022-08-30T03:13:57.051Z,17.18
2022-08-30T03:16:23.532Z,17.17
2022-08-30T03:18:50.316Z,17.24
2022-08-30T03:21:17.188Z,17.28
2022-08-30T03:23:43.630Z,17.27
2022-08-30T03:26:13.091Z,17.24
2022-08-30T03:28:39.433Z,17.20
2022-08-30T03:31:06.000Z,17.17
2022-08-30T03:33:32.352Z,17.15
2022-08-30T03:35:58.801Z,17.20
2022-08-30T03:38:26.070Z,17.20
2022-08-30T03:40:52.561Z,17.23
2022-08-30T03:43:18.984Z,17.21
2022-08-30T03:45:45.987Z,17.15
2022-08-30T03:48:12.897Z,17.14
2022-08-30T03:50:40.437Z,17.11
2022-08-30T03:53:07.579Z,17.06
2022-08-30T03:55:34.238Z,17.03
2022-08-30T03:58:00.638Z,17.01
2022-08-30T04:00:27.040Z,17.02
2022-08-30T04:02:53.535Z,16.99
2022-08-30T04:05:20.385Z,16.91
2022-08-30T04:07:46.807Z,16.84
2022-08-30T04:10:13.219Z,16.77
2022-08-30T04:12:39.582Z,16.71
2022-08-30T04:15:07.611Z,16.60
2022-08-30T04:17:33.969Z,16.74
2022-08-30T04:20:00.324Z,16.71
2022-08-30T04:22:26.749Z,16.70
2022-08-30T04:24:53.141Z,16.65
2022-08-30T04:27:20.370Z,16.63
2022-08-30T04:29:47.582Z,16.61
2022-08-30T04:32:14.601Z,16.58
2022-08-30T04:34:41.013Z,16.52
2022-08-30T04:37:10.042Z,16.49
2022-08-30T04:39:37.121Z,16.51
2022-08-30T04:42:04.262Z,16.55
2022-08-30T04:44:32.082Z,16.46
2022-08-30T04:46:59.513Z,16.43
2022-08-30T04:49:26.124Z,16.43
2022-08-30T04:51:52.489Z,16.45
2022-08-30T04:54:18.823Z,16.45
2022-08-30T04:56:45.224Z,16.42
2022-08-30T04:59:11.557Z,16.44
2022-08-30T05:01:44.874Z,16.44
2022-08-30T05:04:12.225Z,16.45
2022-08-30T05:06:38.602Z,16.47
2022-08-30T05:09:05.475Z,16.50
2022-08-30T05:11:31.836Z,16.48
2022-08-30T05:13:58.375Z,16.48
2022-08-30T05:16:24.889Z,16.51
2022-08-30T05:18:52.750Z,16.55
2022-08-30T05:21:28.061Z,16.56
2022-08-30T05:23:57.047Z,16.57
2022-08-30T05:26:26.357Z,16.55
2022-08-30T05:28:53.045Z,16.52
2022-08-30T05:31:22.412Z,16.51
2022-08-30T05:33:50.640Z,16.50
2022-08-30T05:36:19.198Z,16.49
2022-08-30T05:38:46.115Z,16.48
2022-08-30T05:41:12.944Z,16.45
2022-08-30T05:43:39.652Z,16.43
2022-08-30T05:46:10.387Z,16.38
2022-08-30T05:48:37.516Z,16.35
2022-08-30T05:51:18.177Z,16.48
2022-08-30T05:53:46.041Z,16.59
2022-08-30T05:56:14.655Z,16.65
2022-08-30T05:58:41.597Z,16.69
2022-08-30T06:01:08.161Z,16.73
2022-08-30T06:03:35.209Z,16.74
2022-08-30T06:06:02.340Z,16.83
2022-08-30T06:08:29.036Z,16.92
2022-08-30T06:10:55.390Z,16.85
2022-08-30T06:13:22.255Z,16.87
2022-08-30T06:15:49.473Z,16.90
2022-08-30T06:18:16.146Z,16.91
2022-08-30T06:20:44.620Z,16.95
2022-08-30T06:23:11.192Z,17.06
2022-08-30T06:25:41.333Z,17.15
2022-08-30T06:28:09.500Z,17.25
2022-08-30T06:30:36.046Z,17.36
2022-08-30T06:33:02.687Z,17.48
2022-08-30T06:35:30.715Z,17.63
2022-08-30T06:37:59.188Z,17.76
2022-08-30T06:40:25.745Z,17.87
2022-08-30T06:42:52.177Z,17.99
2022-08-30T06:45:18.736Z,18.01
2022-08-30T06:47:45.146Z,18.14
2022-08-30T06:50:13.456Z,18.30
2022-08-30T06:52:42.286Z,18.41
2022-08-30T06:55:11.356Z,18.48
2022-08-30T06:57:37.783Z,18.53
2022-08-30T07:00:06.229Z,18.58
2022-08-30T07:02:32.650Z,18.63
2022-08-30T07:04:59.098Z,18.68
2022-08-30T07:07:25.736Z,18.76
2022-08-30T07:09:52.130Z,18.87
2022-08-30T07:12:18.492Z,19.06
2022-08-30T07:14:44.949Z,19.29
2022-08-30T07:17:34.411Z,19.50
2022-08-30T07:20:01.333Z,19.75
2022-08-30T07:22:27.942Z,19.94
2022-08-30T07:24:54.332Z,20.13
2022-08-30T07:27:20.998Z,20.30
2022-08-30T07:29:49.208Z,20.33
2022-08-30T07:32:15.897Z,20.54
2022-08-30T07:34:42.286Z,20.65
2022-08-30T07:37:08.703Z,20.73
2022-08-30T07:39:41.675Z,20.77
2022-08-30T07:42:12.313Z,20.86
2022-08-30T07:44:38.701Z,21.07
2022-08-30T07:47:05.265Z,21.26
2022-08-30T07:49:31.685Z,21.43
2022-08-30T07:51:58.141Z,21.56
2022-08-30T07:54:24.602Z,21.61
2022-08-30T07:56:51.003Z,21.65
2022-08-30T07:59:17.757Z,21.69
2022-08-30T08:01:44.149Z,21.75
2022-08-30T08:04:10.546Z,21.82
2022-08-30T08:06:40.131Z,21.86
2022-08-30T08:09:07.542Z,21.94
2022-08-30T08:11:35.144Z,22.03
2022-08-30T08:14:04.006Z,22.11
2022-08-30T08:16:32.918Z,22.18
2022-08-30T08:18:59.301Z,22.21
2022-08-30T08:21:27.166Z,22.22
2022-08-30T08:23:53.841Z,22.22
2022-08-30T08:26:20.935Z,22.25
2022-08-30T08:28:47.599Z,22.33
2022-08-30T08:31:19.828Z,22.38
2022-08-30T08:33:46.421Z,22.57
2022-08-30T08:36:13.344Z,22.74
2022-08-30T08:38:39.829Z,22.83
2022-08-30T08:41:32.211Z,22.93
2022-08-30T08:43:58.881Z,22.91
2022-08-30T08:46:37.415Z,22.97
2022-08-30T08:49:07.921Z,23.18
2022-08-30T08:51:58.133Z,23.51
2022-08-30T08:54:32.552Z,23.94
2022-08-30T08:56:59.610Z,24.18
2022-08-30T08:59:26.184Z,24.36
2022-08-30T09:01:58.215Z,24.45
2022-08-30T09:04:33.365Z,24.50
2022-08-30T09:07:17.348Z,24.42
2022-08-30T09:09:43.800Z,24.55
2022-08-30T09:12:11.659Z,24.77
2022-08-30T09:14:46.662Z,24.97
2022-08-30T09:17:17.775Z,24.94
2022-08-30T09:19:56.910Z,25.26
2022-08-30T09:22:38.458Z,25.55
2022-08-30T09:25:07.742Z,25.68
2022-08-30T09:27:46.814Z,26.06
2022-08-30T09:30:28.552Z,26.14
2022-08-30T09:33:03.441Z,25.89
2022-08-30T09:35:37.626Z,25.91
2022-08-30T09:38:10.200Z,25.60
2022-08-30T09:40:42.621Z,25.56
2022-08-30T09:43:18.140Z,25.55
2022-08-30T09:46:10.004Z,25.45
2022-08-30T09:48:44.453Z,25.69
2022-08-30T09:51:11.538Z,25.96
2022-08-30T09:54:01.120Z,26.49
2022-08-30T09:56:38.704Z,27.25
2022-08-30T09:59:23.748Z,28.40
2022-08-30T10:02:30.186Z,29.37
2022-08-30T10:05:02.320Z,30.09
2022-08-30T10:07:42.453Z,29.83
2022-08-30T10:10:18.281Z,30.00
2022-08-30T10:12:59.544Z,30.65
2022-08-30T10:15:32.461Z,31.06
2022-08-30T10:18:17.325Z,30.68
2022-08-30T10:21:04.522Z,30.24
2022-08-30T10:23:38.657Z,30.34
2022-08-30T10:26:17.769Z,30.05
2022-08-30T10:28:51.161Z,29.62
2022-08-30T10:31:32.280Z,29.31
2022-08-30T10:34:08.090Z,28.75
2022-08-30T10:36:42.541Z,28.60
2022-08-30T10:39:15.170Z,28.51
2022-08-30T10:41:50.312Z,28.43
2022-08-30T10:44:22.537Z,28.16
2022-08-30T10:46:55.273Z,28.31
2022-08-30T10:49:26.336Z,28.22
2022-08-30T10:52:22.129Z,28.25
2022-08-30T10:54:58.551Z,28.30
2022-08-30T10:57:25.260Z,28.85
2022-08-30T11:00:06.065Z,29.03
2022-08-30T11:03:02.802Z,29.14
2022-08-30T11:05:45.200Z,29.13
2022-08-30T11:08:21.004Z,29.99
2022-08-30T11:11:01.111Z,30.46
2022-08-30T11:13:30.810Z,30.68
2022-08-30T11:16:07.243Z,30.94
2022-08-30T11:18:44.586Z,31.22
2022-08-30T11:21:24.669Z,31.41
2022-08-30T11:24:24.653Z,32.35
2022-08-30T11:26:57.082Z,32.61
2022-08-30T11:29:26.153Z,33.03
2022-08-30T11:31:54.047Z,33.35
2022-08-30T11:34:53.756Z,33.52
2022-08-30T11:37:39.526Z,33.67
2022-08-30T11:40:30.389Z,33.33
2022-08-30T11:42:56.902Z,32.38
2022-08-30T11:45:25.423Z,31.89
2022-08-30T11:48:00.164Z,31.37
2022-08-30T11:50:40.569Z,30.95
2022-08-30T11:53:31.088Z,30.07
2022-08-30T11:56:19.117Z,29.44
2022-08-30T11:59:07.563Z,29.45
2022-08-30T12:01:50.957Z,29.97
2022-08-30T12:04:19.383Z,30.41
2022-08-30T12:07:07.840Z,30.80
2022-08-30T12:09:34.724Z,30.77
2022-08-30T12:12:07.708Z,30.74
2022-08-30T12:14:40.951Z,30.69
2022-08-30T12:17:43.865Z,30.45
2022-08-30T12:20:30.782Z,30.56
2022-08-30T12:23:12.854Z,29.97
2022-08-30T12:25:39.281Z,29.77
2022-08-30T12:28:11.668Z,29.45
2022-08-30T12:30:40.030Z,29.56
2022-08-30T12:33:12.111Z,29.70
2022-08-30T12:35:40.816Z,29.87
2022-08-30T12:38:18.158Z,29.75
2022-08-30T12:40:54.495Z,28.86
2022-08-30T12:43:39.646Z,28.67
2022-08-30T12:46:12.495Z,28.78
2022-08-30T12:48:42.357Z,28.97
2022-08-30T12:51:44.026Z,29.36
2022-08-30T12:54:29.345Z,29.69
2022-08-30T12:57:19.275Z,30.13
2022-08-30T12:59:59.422Z,30.12
2022-08-30T13:02:45.690Z,30.09
2022-08-30T13:05:34.878Z,30.48
2022-08-30T13:08:22.722Z,30.09
2022-08-30T13:11:10.626Z,30.27
2022-08-30T13:13:52.277Z,30.15
2022-08-30T13:16:20.447Z,30.04
2022-08-30T13:18:50.003Z,30.14
2022-08-30T13:21:21.243Z,30.22
2022-08-30T13:23:48.828Z,29.86
2022-08-30T13:26:23.219Z,29.78
2022-08-30T13:28:54.288Z,29.95
2022-08-30T13:31:21.700Z,30.21
2022-08-30T13:33:52.881Z,30.08
2022-08-30T13:36:24.971Z,30.11
2022-08-30T13:38:51.913Z,30.00
2022-08-30T13:41:20.239Z,29.72
2022-08-30T13:46:34.334Z,28.72
2022-08-30T13:49:05.402Z,28.20
2022-08-30T13:51:32.440Z,27.84
2022-08-30T13:54:00.657Z,27.43
2022-08-30T13:56:31.932Z,27.50
2022-08-30T13:58:59.721Z,27.46
2022-08-30T14:01:29.680Z,27.42
2022-08-30T14:09:29.124Z,27.49
2022-08-30T14:11:56.961Z,27.51
2022-08-30T14:14:41.918Z,27.48
2022-08-30T14:17:09.383Z,27.63
2022-08-30T14:19:35.985Z,27.70
2022-08-30T14:22:02.393Z,27.54
2022-08-30T14:24:29.185Z,27.72
2022-08-30T14:26:55.816Z,27.92
2022-08-30T14:29:25.987Z,28.03
2022-08-30T14:31:52.786Z,28.06
2022-08-30T14:34:19.376Z,27.84
2022-08-30T14:36:46.261Z,27.84
2022-08-30T14:39:17.908Z,27.79
2022-08-30T14:41:47.930Z,27.47
2022-08-30T14:44:15.596Z,27.43
2022-08-30T14:46:43.253Z,27.53
2022-08-30T14:49:11.245Z,27.52
2022-08-30T14:51:38.358Z,27.45
2022-08-30T14:54:04.941Z,27.48
2022-08-30T14:56:31.392Z,27.26
2022-08-30T14:59:00.423Z,27.26
2022-08-30T15:01:28.549Z,27.33
2022-08-30T15:03:55.463Z,27.51
2022-08-30T15:06:22.705Z,27.43
2022-08-30T15:08:49.400Z,27.56
2022-08-30T15:11:18.970Z,27.58
2022-08-30T15:13:46.300Z,27.44
2022-08-30T15:16:20.159Z,27.20
2022-08-30T15:18:47.559Z,27.20
2022-08-30T15:21:14.561Z,27.19
2022-08-30T15:23:41.404Z,27.06
2022-08-30T15:26:09.474Z,26.96
2022-08-30T15:28:36.414Z,26.93
2022-08-30T15:31:06.283Z,26.90
2022-08-30T15:33:35.856Z,26.98
2022-08-30T15:36:04.768Z,27.13
2022-08-30T15:38:32.095Z,27.12
2022-08-30T15:41:04.879Z,26.99
2022-08-30T15:43:31.552Z,26.91
2022-08-30T15:46:17.484Z,27.00
2022-08-30T15:48:46.083Z,27.03
2022-08-30T15:51:13.620Z,26.89
2022-08-30T15:53:40.452Z,26.77
2022-08-30T15:56:07.001Z,26.69
2022-08-30T15:58:34.277Z,26.57
2022-08-30T16:01:00.936Z,26.53
2022-08-30T16:03:27.361Z,26.40
2022-08-30T16:05:53.732Z,26.37
2022-08-30T16:08:20.112Z,26.39
2022-08-30T16:10:51.931Z,26.20
2022-08-30T16:13:18.660Z,26.14
2022-08-30T16:15:45.736Z,26.04
2022-08-30T16:18:13.688Z,25.91
2022-08-30T16:20:41.798Z,25.80
2022-08-30T16:23:09.302Z,25.65
2022-08-30T16:25:41.254Z,25.51
2022-08-30T16:28:09.293Z,25.62
2022-08-30T16:30:35.788Z,25.59
2022-08-30T16:33:02.475Z,25.62
2022-08-30T16:35:28.821Z,25.68
2022-08-30T16:37:55.804Z,25.61
2022-08-30T16:40:22.198Z,25.56
2022-08-30T16:42:50.082Z,25.50
2022-08-30T16:45:16.465Z,25.47
2022-08-30T16:47:42.802Z,25.33
2022-08-30T16:50:11.283Z,25.33
2022-08-30T16:52:42.315Z,25.24
2022-08-30T16:55:10.791Z,25.21
2022-08-30T16:57:37.166Z,25.12
2022-08-30T17:00:07.525Z,25.07
2022-08-30T17:02:39.977Z,25.08
2022-08-30T17:05:09.329Z,25.02
2022-08-30T17:07:38.753Z,25.04
2022-08-30T17:10:05.912Z,24.97
2022-08-30T17:12:35.448Z,24.75
2022-08-30T17:15:05.540Z,24.70
2022-08-30T17:17:32.496Z,24.63
2022-08-30T17:19:59.033Z,24.58
2022-08-30T17:22:25.934Z,24.34
2022-08-30T17:24:53.015Z,24.31
2022-08-30T17:27:19.601Z,24.14
2022-08-30T17:29:45.936Z,24.10
2022-08-30T17:32:12.436Z,24.05
2022-08-30T17:34:38.890Z,23.96
2022-08-30T17:37:06.144Z,23.90
2022-08-30T17:39:32.534Z,23.83
2022-08-30T17:41:59.085Z,23.71
2022-08-30T17:44:30.629Z,23.67
2022-08-30T17:46:59.026Z,23.63
2022-08-30T17:49:27.446Z,23.57
2022-08-30T17:51:56.962Z,23.52
2022-08-30T17:54:24.377Z,23.47
2022-08-30T17:56:52.064Z,23.32
2022-08-30T17:59:19.081Z,23.25
2022-08-30T18:01:52.542Z,23.28
2022-08-30T18:04:20.436Z,23.19
2022-08-30T18:06:47.905Z,23.10
2022-08-30T18:09:14.306Z,23.08
2022-08-30T18:11:40.986Z,23.00
2022-08-30T18:14:10.964Z,22.95
2022-08-30T18:16:38.708Z,22.89
2022-08-30T18:19:13.911Z,22.81
2022-08-30T18:21:40.577Z,22.76
2022-08-30T18:24:07.879Z,22.71
2022-08-30T18:26:35.968Z,22.66
2022-08-30T18:29:04.281Z,22.62
2022-08-30T18:31:30.712Z,22.58
2022-08-30T18:34:00.141Z,22.51
2022-08-30T18:36:27.745Z,22.45
2022-08-30T18:38:54.760Z,22.45
2022-08-30T18:41:21.675Z,22.38
2022-08-30T18:43:48.357Z,22.36
2022-08-30T18:46:16.968Z,22.21
2022-08-30T18:48:45.648Z,22.29
2022-08-30T18:51:15.056Z,22.23
2022-08-30T18:53:42.785Z,22.21
2022-08-30T18:56:11.041Z,22.16
2022-08-30T18:58:40.173Z,22.14
2022-08-30T19:01:11.615Z,22.11
2022-08-30T19:03:39.901Z,22.06
2022-08-30T19:06:11.386Z,21.98
2022-08-30T19:08:38.785Z,21.98
2022-08-30T19:11:07.481Z,21.98
2022-08-30T19:13:34.809Z,21.86
2022-08-30T19:16:01.487Z,21.91
2022-08-30T19:18:27.856Z,21.89
2022-08-30T19:20:54.349Z,21.85
2022-08-30T19:23:23.319Z,21.85
2022-08-30T19:25:53.330Z,21.51
2022-08-30T19:28:20.431Z,21.76
2022-08-30T19:30:46.905Z,21.74
2022-08-30T19:33:13.346Z,21.69
2022-08-30T19:35:39.716Z,21.69
2022-08-30T19:38:06.178Z,21.59
2022-08-30T19:40:32.601Z,21.64
2022-08-30T19:42:59.550Z,21.62
2022-08-30T19:45:25.968Z,21.57
2022-08-30T19:47:53.255Z,21.54
2022-08-30T19:50:20.954Z,21.50
2022-08-30T19:52:53.715Z,21.47
2022-08-30T19:55:23.667Z,21.34
2022-08-30T19:57:50.462Z,21.41
2022-08-30T20:00:17.352Z,21.36
2022-08-30T20:02:44.318Z,21.36
2022-08-30T20:05:17.076Z,21.38
2022-08-30T20:07:43.971Z,21.32
2022-08-30T20:10:13.575Z,21.33
2022-08-30T20:12:45.419Z,21.31
2022-08-30T20:15:14.574Z,21.28
2022-08-30T20:18:03.337Z,21.14
2022-08-30T20:20:33.449Z,21.23
2022-08-30T20:23:02.844Z,21.21
2022-08-30T20:25:30.455Z,21.19
2022-08-30T20:27:56.877Z,21.11
2022-08-30T20:30:23.293Z,21.11
2022-08-30T20:32:49.722Z,21.08
2022-08-30T20:35:17.668Z,21.06
2022-08-30T20:37:44.806Z,21.06
2022-08-30T20:42:45.398Z,21.00
2022-08-30T20:45:14.869Z,20.90
2022-08-30T20:47:42.776Z,20.97
2022-08-30T20:50:13.720Z,20.94
2022-08-30T20:52:40.797Z,20.90
2022-08-30T20:55:08.539Z,20.75
2022-08-30T20:57:34.948Z,20.87
2022-08-30T21:00:01.582Z,20.74
2022-08-30T21:02:28.054Z,20.81
2022-08-30T21:04:54.804Z,20.74
2022-08-30T21:07:21.185Z,20.73
2022-08-30T21:09:47.556Z,20.71
2022-08-30T21:12:13.992Z,20.71
2022-08-30T21:14:40.337Z,20.64
2022-08-30T21:17:06.710Z,20.64
2022-08-30T21:19:33.151Z,20.60
2022-08-30T21:22:00.148Z,20.58
2022-08-30T21:24:26.566Z,20.57
2022-08-30T21:26:54.108Z,20.55
2022-08-30T21:29:20.470Z,20.52
2022-08-30T21:31:46.797Z,20.48
2022-08-30T21:34:17.236Z,20.48
2022-08-30T21:36:47.213Z,20.44
2022-08-30T21:39:16.539Z,20.43
2022-08-30T21:41:43.971Z,20.40
2022-08-30T21:44:13.708Z,20.36
2022-08-30T21:46:40.457Z,20.29
2022-08-30T21:49:09.614Z,20.34
2022-08-30T21:51:41.845Z,20.35
2022-08-30T21:54:10.992Z,20.33
2022-08-30T21:56:39.683Z,20.27
2022-08-30T21:59:07.761Z,20.34
2022-08-30T22:01:36.221Z,20.33
2022-08-30T22:04:06.182Z,20.34
2022-08-30T22:06:34.404Z,20.35
2022-08-30T22:09:02.766Z,20.34
2022-08-30T22:11:31.497Z,20.33
2022-08-30T22:13:58.341Z,20.35
2022-08-30T22:16:25.168Z,20.38
2022-08-30T22:18:52.550Z,20.38
2022-08-30T22:21:23.425Z,20.39
2022-08-30T22:23:50.385Z,20.35
2022-08-30T22:26:18.043Z,20.38
2022-08-30T22:28:44.455Z,20.36
2022-08-30T22:31:13.679Z,20.32
2022-08-30T22:33:44.479Z,20.29
2022-08-30T22:36:14.628Z,20.27
2022-08-30T22:38:41.330Z,20.23
2022-08-30T22:41:11.610Z,20.19
2022-08-30T22:43:38.057Z,20.19
2022-08-30T22:46:06.822Z,20.14
2022-08-30T22:48:36.969Z,20.11
2022-08-30T22:51:03.640Z,20.11
2022-08-30T22:53:30.401Z,20.10
2022-08-30T22:55:56.872Z,20.09
2022-08-30T22:58:23.534Z,20.10
2022-08-30T23:00:55.228Z,20.05
2022-08-30T23:03:22.426Z,20.03
2022-08-30T23:05:48.789Z,20.00
2022-08-30T23:08:15.254Z,19.98
2022-08-30T23:10:41.895Z,19.96
2022-08-30T23:13:08.270Z,19.96
2022-08-30T23:15:34.743Z,19.91
2022-08-30T23:18:01.163Z,19.89
2022-08-30T23:20:27.549Z,19.87
2022-08-30T23:22:59.962Z,19.82
2022-08-30T23:25:47.189Z,19.68
2022-08-30T23:28:38.021Z,19.80
2022-08-30T23:31:28.502Z,19.81
2022-08-30T23:34:13.659Z,19.83
2022-08-30T23:36:58.393Z,19.83
2022-08-30T23:39:43.369Z,19.88
2022-08-30T23:42:28.697Z,19.91
2022-08-30T23:45:13.564Z,19.87
2022-08-30T23:47:58.474Z,19.92
2022-08-30T23:50:43.864Z,19.80
2022-08-30T23:53:29.205Z,19.91
2022-08-30T23:56:13.974Z,19.87
2022-08-30T23:58:59.370Z,19.85
